Time;durP1;ratioP1;P1;durP2;ratioP2;P2;SDS_P1;SDS_P2;PMS_P1;PMS_P2;Temp;Humidity;BMP_temperature;BMP_pressure;BME280_temperature;BME280_humidity;BME280_pressure;Samples;Min_cycle;Max_cycle;Signal;HPM_P1;HPM_P2
2024/03/30 00:00:00;;;;;;;3.45;1.80;;;;;;;;;;5082765;28;20218;-72
2024/03/30 00:02:27;;;;;;;2.00;1.80;;;;;;;;;;5064011;28;20219;-71
2024/03/30 00:04:53;;;;;;;2.08;1.83;;;;;;;;;;5078360;28;20240;-71
2024/03/30 00:07:19;;;;;;;2.83;2.50;;;;;;;;;;5087917;28;20179;-71
2024/03/30 00:09:50;;;;;;;2.47;1.90;;;;;;;;;;5075987;28;20180;-71
2024/03/30 00:12:16;;;;;;;3.92;1.67;;;;;;;;;;5075203;28;20241;-71
2024/03/30 00:14:43;;;;;;;5.07;1.80;;;;;;;;;;5088624;28;20196;-71
2024/03/30 00:17:09;;;;;;;2.88;1.55;;;;;;;;;;5075160;28;20189;-71
2024/03/30 00:19:38;;;;;;;2.55;1.60;;;;;;;;;;5076763;28;20733;-71
2024/03/30 00:22:03;;;;;;;2.85;1.65;;;;;;;;;;5083910;28;20527;-71
2024/03/30 00:24:29;;;;;;;2.28;1.80;;;;;;;;;;5067589;28;20187;-71
2024/03/30 00:26:55;;;;;;;3.15;1.75;;;;;;;;;;5079236;28;20241;-71
2024/03/30 00:29:20;;;;;;;3.13;1.80;;;;;;;;;;5078617;28;20189;-72
2024/03/30 00:31:45;;;;;;;1.55;1.40;;;;;;;;;;5081215;28;20218;-72
2024/03/30 00:34:11;;;;;;;2.75;1.65;;;;;;;;;;5074492;28;20184;-72
2024/03/30 00:36:36;;;;;;;3.03;1.80;;;;;;;;;;5088115;28;20192;-72
2024/03/30 00:39:04;;;;;;;2.50;1.65;;;;;;;;;;5074299;28;20188;-72
2024/03/30 00:41:29;;;;;;;1.80;1.58;;;;;;;;;;5076092;28;20327;-72
2024/03/30 00:43:55;;;;;;;1.65;1.55;;;;;;;;;;5070917;28;20310;-72
2024/03/30 00:46:20;;;;;;;2.67;1.88;;;;;;;;;;5087417;28;20484;-71
2024/03/30 00:48:45;;;;;;;3.35;2.00;;;;;;;;;;5073664;28;20191;-71
2024/03/30 00:51:11;;;;;;;2.67;1.80;;;;;;;;;;5087202;28;20207;-71
2024/03/30 00:53:36;;;;;;;6.20;1.60;;;;;;;;;;5088200;28;20657;-71
2024/03/30 00:56:02;;;;;;;1.95;1.60;;;;;;;;;;5073825;28;20192;-71
2024/03/30 00:58:30;;;;;;;2.92;1.60;;;;;;;;;;5077216;28;20179;-71
2024/03/30 01:00:56;;;;;;;3.75;1.83;;;;;;;;;;5077016;28;20534;-71
2024/03/30 01:03:21;;;;;;;2.58;1.52;;;;;;;;;;5081333;28;20200;-71
2024/03/30 01:05:47;;;;;;;4.65;1.60;;;;;;;;;;5081522;28;20258;-71
2024/03/30 01:08:12;;;;;;;2.10;1.83;;;;;;;;;;5080213;28;20210;-71
2024/03/30 01:10:38;;;;;;;2.10;1.30;;;;;;;;;;5088990;28;20223;-71
2024/03/30 01:13:04;;;;;;;2.58;1.70;;;;;;;;;;5088374;28;20595;-71
2024/03/30 01:15:29;;;;;;;2.40;1.60;;;;;;;;;;5070563;28;20189;-71
2024/03/30 01:17:55;;;;;;;2.47;1.60;;;;;;;;;;5082280;28;20705;-71
2024/03/30 01:20:21;;;;;;;2.05;1.50;;;;;;;;;;5080618;28;20207;-71
2024/03/30 01:22:47;;;;;;;2.33;1.80;;;;;;;;;;5069292;28;20188;-71
2024/03/30 01:25:13;;;;;;;2.60;1.55;;;;;;;;;;5084948;28;20192;-71
2024/03/30 01:27:39;;;;;;;3.42;1.90;;;;;;;;;;5085709;28;20188;-71
2024/03/30 01:30:09;;;;;;;3.25;1.60;;;;;;;;;;5082066;28;20188;-71
2024/03/30 01:32:35;;;;;;;2.42;1.40;;;;;;;;;;5083816;28;20196;-71
2024/03/30 01:35:01;;;;;;;3.22;1.80;;;;;;;;;;5075469;28;20181;-71
2024/03/30 01:37:27;;;;;;;1.70;1.50;;;;;;;;;;5086885;28;20620;-71
2024/03/30 01:39:52;;;;;;;2.80;1.60;;;;;;;;;;5073484;28;20208;-71
2024/03/30 01:42:28;;;;;;;2.30;1.48;;;;;;;;;;5074013;28;20582;-72
2024/03/30 01:44:54;;;;;;;4.15;2.00;;;;;;;;;;5074823;28;20391;-72
2024/03/30 01:47:21;;;;;;;2.80;1.70;;;;;;;;;;5083889;28;20188;-72
2024/03/30 01:49:47;;;;;;;2.03;1.60;;;;;;;;;;5074080;28;20563;-71
2024/03/30 01:52:13;;;;;;;1.80;1.55;;;;;;;;;;5074856;28;20187;-71
2024/03/30 01:54:39;;;;;;;2.20;1.67;;;;;;;;;;5082509;28;20219;-72
2024/03/30 01:57:04;;;;;;;2.78;1.55;;;;;;;;;;5086192;28;20180;-72
2024/03/30 01:59:30;;;;;;;3.38;1.40;;;;;;;;;;5084258;28;20188;-72
2024/03/30 02:01:56;;;;;;;3.28;1.63;;;;;;;;;;5071210;28;20791;-72
2024/03/30 02:04:24;;;;;;;2.55;1.75;;;;;;;;;;5086823;28;20180;-72
2024/03/30 02:06:50;;;;;;;4.45;2.00;;;;;;;;;;5086503;28;20185;-72
2024/03/30 02:09:17;;;;;;;2.10;1.90;;;;;;;;;;5073693;28;20273;-72
2024/03/30 02:11:43;;;;;;;2.17;1.80;;;;;;;;;;5090379;28;20215;-71
2024/03/30 02:14:08;;;;;;;4.38;1.80;;;;;;;;;;5073840;28;20784;-71
2024/03/30 02:16:35;;;;;;;2.58;1.88;;;;;;;;;;5072419;28;20231;-71
2024/03/30 02:19:03;;;;;;;3.80;1.90;;;;;;;;;;5085781;28;20215;-69
2024/03/30 02:21:28;;;;;;;3.17;1.85;;;;;;;;;;5088112;28;20207;-71
2024/03/30 02:23:54;;;;;;;4.05;2.13;;;;;;;;;;5086447;28;20544;-71
2024/03/30 02:26:19;;;;;;;3.20;2.03;;;;;;;;;;5091216;28;20637;-72
2024/03/30 02:28:47;;;;;;;2.30;1.63;;;;;;;;;;5090824;28;20271;-71
2024/03/30 02:31:14;;;;;;;2.83;1.90;;;;;;;;;;5069703;28;20187;-71
2024/03/30 02:33:40;;;;;;;3.40;2.28;;;;;;;;;;5088840;28;20188;-71
2024/03/30 02:36:06;;;;;;;4.50;1.98;;;;;;;;;;5090171;28;20495;-71
2024/03/30 02:38:31;;;;;;;4.00;2.10;;;;;;;;;;5081684;28;20247;-71
2024/03/30 02:40:57;;;;;;;6.80;2.60;;;;;;;;;;5082238;28;20200;-71
2024/03/30 02:43:22;;;;;;;3.05;2.00;;;;;;;;;;5075626;28;20615;-71
2024/03/30 02:45:48;;;;;;;3.78;2.88;;;;;;;;;;5069834;28;20279;-71
2024/03/30 02:48:14;;;;;;;3.58;2.40;;;;;;;;;;5075627;28;20280;-71
2024/03/30 02:50:40;;;;;;;4.80;2.80;;;;;;;;;;5068903;28;20306;-71
2024/03/30 02:53:05;;;;;;;3.13;2.50;;;;;;;;;;5085218;28;20192;-71
2024/03/30 02:55:31;;;;;;;2.63;2.35;;;;;;;;;;5088103;28;20218;-71
2024/03/30 02:57:56;;;;;;;4.82;2.55;;;;;;;;;;5081691;28;20275;-71
2024/03/30 03:00:21;;;;;;;5.10;3.65;;;;;;;;;;5099146;28;20236;-71
2024/03/30 03:02:47;;;;;;;5.30;3.90;;;;;;;;;;5080794;28;20192;-71
2024/03/30 03:05:12;;;;;;;7.53;3.65;;;;;;;;;;5088626;28;20220;-72
2024/03/30 03:07:38;;;;;;;6.22;3.92;;;;;;;;;;5080282;28;20189;-72
2024/03/30 03:10:04;;;;;;;4.95;4.07;;;;;;;;;;5082208;28;20184;-71
2024/03/30 03:12:30;;;;;;;6.78;3.83;;;;;;;;;;5080899;28;20566;-74
2024/03/30 03:14:56;;;;;;;6.68;3.97;;;;;;;;;;5078493;28;20193;-76
2024/03/30 03:17:22;;;;;;;4.70;4.00;;;;;;;;;;5083829;28;21154;-76
2024/03/30 03:19:47;;;;;;;5.32;4.30;;;;;;;;;;5078717;28;20280;-78
2024/03/30 03:22:12;;;;;;;6.53;5.00;;;;;;;;;;5074383;28;20695;-78
2024/03/30 03:24:38;;;;;;;6.05;5.38;;;;;;;;;;5081964;28;20211;-78
2024/03/30 03:27:04;;;;;;;7.55;5.03;;;;;;;;;;5076838;28;20627;-77
2024/03/30 03:29:29;;;;;;;11.10;4.93;;;;;;;;;;5082572;28;20683;-76
2024/03/30 03:31:55;;;;;;;5.88;4.72;;;;;;;;;;5079066;28;20196;-76
2024/03/30 03:34:20;;;;;;;8.85;5.57;;;;;;;;;;5062697;28;20648;-76
2024/03/30 03:36:46;;;;;;;9.20;5.25;;;;;;;;;;5070515;28;20635;-76
2024/03/30 03:39:11;;;;;;;7.10;5.72;;;;;;;;;;5083973;28;20301;-76
2024/03/30 03:41:37;;;;;;;8.48;5.80;;;;;;;;;;5083437;28;20216;-76
2024/03/30 03:44:02;;;;;;;7.95;5.93;;;;;;;;;;5073970;28;20189;-76
2024/03/30 03:46:28;;;;;;;8.90;5.75;;;;;;;;;;5083244;28;20624;-77
2024/03/30 03:48:53;;;;;;;8.93;6.07;;;;;;;;;;5068543;28;20295;-76
2024/03/30 03:51:18;;;;;;;11.73;6.28;;;;;;;;;;5078810;28;20264;-76
2024/03/30 03:53:44;;;;;;;10.10;6.47;;;;;;;;;;5064084;28;20267;-76
2024/03/30 03:56:09;;;;;;;12.40;7.53;;;;;;;;;;5087496;28;20277;-76
2024/03/30 03:58:35;;;;;;;9.65;6.70;;;;;;;;;;5075278;28;20246;-75
2024/03/30 04:01:06;;;;;;;12.50;8.57;;;;;;;;;;5082758;28;20263;-76
2024/03/30 04:03:32;;;;;;;12.50;8.68;;;;;;;;;;5076145;28;20196;-76
2024/03/30 04:06:07;;;;;;;12.93;8.82;;;;;;;;;;5075564;28;20181;-76
2024/03/30 04:08:33;;;;;;;12.52;9.38;;;;;;;;;;5052173;28;20220;-75
2024/03/30 04:11:03;;;;;;;13.38;9.55;;;;;;;;;;5055750;28;20631;-74
2024/03/30 04:13:29;;;;;;;13.57;9.93;;;;;;;;;;5089482;28;20199;-75
2024/03/30 04:15:54;;;;;;;13.85;10.23;;;;;;;;;;5067106;28;20536;-75
2024/03/30 04:18:20;;;;;;;16.10;11.98;;;;;;;;;;5077809;28;20199;-75
2024/03/30 04:20:56;;;;;;;14.30;11.43;;;;;;;;;;5079935;28;21356;-73
2024/03/30 04:23:21;;;;;;;13.93;11.02;;;;;;;;;;5078236;28;20554;-73
2024/03/30 04:25:47;;;;;;;16.38;11.63;;;;;;;;;;5081788;28;20202;-73
2024/03/30 04:28:12;;;;;;;15.25;11.85;;;;;;;;;;5087844;28;20227;-73
2024/03/30 04:30:38;;;;;;;18.73;11.90;;;;;;;;;;5075619;28;20196;-73
2024/03/30 04:33:03;;;;;;;13.80;11.52;;;;;;;;;;5084744;28;20184;-73
2024/03/30 04:35:29;;;;;;;15.48;11.50;;;;;;;;;;5079360;28;20568;-73
2024/03/30 04:37:54;;;;;;;14.25;11.63;;;;;;;;;;5062752;28;20228;-73
2024/03/30 04:40:20;;;;;;;14.48;11.13;;;;;;;;;;5077397;28;20540;-73
2024/03/30 04:42:45;;;;;;;13.00;10.85;;;;;;;;;;5085827;28;20253;-73
2024/03/30 04:45:11;;;;;;;16.35;10.13;;;;;;;;;;5086437;28;20183;-73
2024/03/30 04:47:37;;;;;;;16.27;12.10;;;;;;;;;;5089420;28;20184;-73
2024/03/30 04:50:02;;;;;;;16.80;12.30;;;;;;;;;;5092220;28;20528;-73
2024/03/30 04:52:28;;;;;;;16.73;12.38;;;;;;;;;;5076157;28;20224;-74
2024/03/30 04:54:53;;;;;;;19.77;12.98;;;;;;;;;;5087831;28;20196;-73
2024/03/30 04:57:18;;;;;;;17.05;12.90;;;;;;;;;;5088520;28;20639;-73
2024/03/30 04:59:44;;;;;;;19.50;14.18;;;;;;;;;;5057330;28;20208;-73
2024/03/30 05:02:09;;;;;;;20.25;13.63;;;;;;;;;;5072930;28;20206;-73
2024/03/30 05:04:35;;;;;;;15.93;13.35;;;;;;;;;;5087334;28;20184;-73
2024/03/30 05:07:00;;;;;;;15.93;12.93;;;;;;;;;;5085002;28;20600;-73
2024/03/30 05:09:25;;;;;;;17.02;13.32;;;;;;;;;;5079137;28;20648;-73
2024/03/30 05:11:51;;;;;;;16.63;13.02;;;;;;;;;;5068754;28;20188;-73
2024/03/30 05:14:16;;;;;;;20.35;13.43;;;;;;;;;;5081839;28;20211;-73
2024/03/30 05:16:42;;;;;;;20.15;13.68;;;;;;;;;;5088288;28;20249;-72
2024/03/30 05:20:43;;;;;;;19.08;14.70;;;;;;;;;;5083282;28;20243;-72
2024/03/30 05:21:52;;;;;;;19.40;14.90;;;;;;;;;;5071193;28;20280;-73
2024/03/30 05:24:18;;;;;;;17.60;13.85;;;;;;;;;;5080416;28;20279;-72
2024/03/30 05:26:43;;;;;;;17.25;14.07;;;;;;;;;;5067823;28;20187;-72
2024/03/30 05:29:09;;;;;;;18.27;14.20;;;;;;;;;;5082051;28;20196;-72
2024/03/30 05:31:34;;;;;;;15.68;13.00;;;;;;;;;;5081535;28;20185;-73
2024/03/30 05:33:59;;;;;;;17.23;12.73;;;;;;;;;;5081843;28;20207;-74
2024/03/30 05:36:25;;;;;;;16.42;13.25;;;;;;;;;;5083943;28;20192;-72
2024/03/30 05:38:50;;;;;;;18.80;12.27;;;;;;;;;;5086889;28;20203;-73
2024/03/30 05:41:16;;;;;;;16.85;13.32;;;;;;;;;;5086266;28;20547;-73
2024/03/30 05:43:41;;;;;;;16.50;13.00;;;;;;;;;;5089209;28;20269;-73
2024/03/30 05:46:07;;;;;;;15.02;12.80;;;;;;;;;;5085022;28;20501;-73
2024/03/30 05:48:32;;;;;;;15.38;12.55;;;;;;;;;;5078111;28;20202;-73
2024/03/30 05:50:57;;;;;;;16.33;13.00;;;;;;;;;;5085738;28;20176;-73
2024/03/30 05:53:23;;;;;;;15.30;11.95;;;;;;;;;;5077895;28;20693;-73
2024/03/30 05:55:48;;;;;;;15.95;12.18;;;;;;;;;;5073451;28;20199;-73
2024/03/30 05:58:15;;;;;;;14.05;10.65;;;;;;;;;;5076039;28;20245;-73
2024/03/30 06:00:41;;;;;;;15.27;11.35;;;;;;;;;;5085852;28;20219;-73
2024/03/30 06:03:07;;;;;;;14.70;11.02;;;;;;;;;;5091346;28;20555;-73
2024/03/30 06:05:33;;;;;;;12.07;10.55;;;;;;;;;;5087794;28;20185;-73
2024/03/30 06:07:58;;;;;;;13.90;10.93;;;;;;;;;;5082973;28;20734;-74
2024/03/30 06:10:24;;;;;;;13.30;10.15;;;;;;;;;;5081894;28;20255;-74
2024/03/30 06:12:49;;;;;;;11.10;9.63;;;;;;;;;;5069785;28;20242;-73
2024/03/30 06:15:15;;;;;;;13.20;10.38;;;;;;;;;;5089713;28;20249;-73
2024/03/30 06:17:40;;;;;;;11.68;9.88;;;;;;;;;;5078347;28;20287;-73
2024/03/30 06:20:11;;;;;;;11.10;9.90;;;;;;;;;;5081207;28;20200;-73
2024/03/30 06:22:37;;;;;;;12.77;10.27;;;;;;;;;;5094558;28;20236;-73
2024/03/30 06:25:04;;;;;;;12.75;9.75;;;;;;;;;;5088994;28;20184;-73
2024/03/30 06:27:31;;;;;;;10.93;9.73;;;;;;;;;;5077374;28;20192;-73
2024/03/30 06:29:56;;;;;;;12.20;10.15;;;;;;;;;;5084589;28;20199;-73
2024/03/30 06:32:23;;;;;;;11.18;9.10;;;;;;;;;;5091319;28;20441;-73
2024/03/30 06:34:48;;;;;;;11.13;9.70;;;;;;;;;;5082946;28;20199;-72
2024/03/30 06:37:14;;;;;;;12.75;9.68;;;;;;;;;;5078582;28;20224;-72
2024/03/30 06:45:07;;;;;;;11.00;9.40;;;;;;;;;;5089015;28;20623;-72
2024/03/30 06:47:33;;;;;;;11.15;9.35;;;;;;;;;;5087294;28;20188;-72
2024/03/30 06:49:58;;;;;;;10.63;8.95;;;;;;;;;;5079531;28;20173;-72
2024/03/30 06:52:24;;;;;;;9.80;8.50;;;;;;;;;;5086970;28;20200;-73
2024/03/30 06:54:49;;;;;;;9.18;7.43;;;;;;;;;;5082436;28;20181;-73
2024/03/30 06:57:14;;;;;;;9.43;7.82;;;;;;;;;;5078425;28;20199;-73
2024/03/30 06:59:40;;;;;;;9.43;7.30;;;;;;;;;;5087515;28;20189;-73
2024/03/30 07:02:06;;;;;;;8.43;6.60;;;;;;;;;;5077089;28;20191;-72
2024/03/30 07:04:31;;;;;;;7.38;6.00;;;;;;;;;;5081936;28;20215;-72
2024/03/30 07:06:56;;;;;;;6.38;5.78;;;;;;;;;;5070972;28;20218;-72
2024/03/30 07:09:22;;;;;;;8.73;6.05;;;;;;;;;;5087321;28;20200;-72
2024/03/30 07:11:47;;;;;;;7.50;5.72;;;;;;;;;;5079842;28;20217;-72
2024/03/30 07:14:13;;;;;;;7.72;5.22;;;;;;;;;;5084863;28;20203;-72
2024/03/30 07:16:38;;;;;;;7.07;5.40;;;;;;;;;;5078584;28;20196;-72
2024/03/30 07:19:04;;;;;;;7.43;4.82;;;;;;;;;;5086314;28;20267;-72
2024/03/30 07:21:30;;;;;;;5.97;4.50;;;;;;;;;;5082930;28;20239;-72
2024/03/30 07:23:55;;;;;;;5.90;4.90;;;;;;;;;;5081302;28;20646;-72
2024/03/30 07:26:21;;;;;;;6.30;4.32;;;;;;;;;;5076270;28;20296;-72
2024/03/30 07:28:46;;;;;;;4.40;4.00;;;;;;;;;;5075467;28;20189;-72
2024/03/30 07:31:11;;;;;;;5.30;4.00;;;;;;;;;;5076185;28;20271;-72
2024/03/30 07:33:37;;;;;;;4.70;4.00;;;;;;;;;;5070183;28;20231;-72
2024/03/30 07:36:03;;;;;;;5.20;3.83;;;;;;;;;;5071511;28;20257;-73
2024/03/30 07:38:31;;;;;;;7.22;4.50;;;;;;;;;;5072735;28;20228;-73
2024/03/30 07:40:57;;;;;;;4.55;4.15;;;;;;;;;;5069434;28;20209;-73
2024/03/30 07:43:23;;;;;;;6.53;4.20;;;;;;;;;;5082815;28;20211;-74
2024/03/30 07:45:48;;;;;;;4.65;4.25;;;;;;;;;;5080068;28;20555;-72
2024/03/30 07:48:14;;;;;;;5.07;4.43;;;;;;;;;;5081608;28;20261;-72
2024/03/30 07:50:39;;;;;;;4.43;4.03;;;;;;;;;;5078433;28;20201;-72
2024/03/30 07:53:05;;;;;;;4.55;4.10;;;;;;;;;;5071841;28;20184;-73
2024/03/30 07:55:31;;;;;;;6.70;4.10;;;;;;;;;;5099265;28;20188;-73
2024/03/30 07:57:57;;;;;;;5.55;4.50;;;;;;;;;;5089751;28;20191;-73
2024/03/30 08:00:23;;;;;;;4.55;3.88;;;;;;;;;;5089730;28;20643;-74
2024/03/30 08:02:49;;;;;;;4.57;4.18;;;;;;;;;;5084701;28;20219;-73
2024/03/30 08:05:14;;;;;;;7.07;4.47;;;;;;;;;;5083600;28;20220;-73
2024/03/30 08:07:40;;;;;;;5.50;4.40;;;;;;;;;;5089310;28;20707;-73
2024/03/30 08:10:06;;;;;;;6.05;4.53;;;;;;;;;;5097811;28;20605;-73
2024/03/30 08:12:32;;;;;;;5.15;4.32;;;;;;;;;;5078568;28;20196;-73
2024/03/30 08:14:57;;;;;;;5.70;4.78;;;;;;;;;;5073038;28;20188;-73
2024/03/30 08:17:22;;;;;;;5.28;4.78;;;;;;;;;;5085969;28;20187;-73
2024/03/30 08:19:48;;;;;;;5.15;4.57;;;;;;;;;;5084639;28;20216;-73
2024/03/30 08:22:14;;;;;;;4.47;4.07;;;;;;;;;;5083954;28;20266;-73
2024/03/30 08:24:39;;;;;;;5.90;4.07;;;;;;;;;;5088316;28;20557;-73
2024/03/30 08:27:04;;;;;;;5.72;4.57;;;;;;;;;;5086399;28;20652;-73
2024/03/30 08:29:30;;;;;;;5.22;4.72;;;;;;;;;;5084208;28;20263;-73
2024/03/30 08:31:55;;;;;;;12.38;4.65;;;;;;;;;;5076765;28;20706;-73
2024/03/30 08:34:21;;;;;;;5.28;4.70;;;;;;;;;;5083798;28;20184;-74
2024/03/30 08:36:46;;;;;;;5.20;4.45;;;;;;;;;;5088214;28;20255;-73
2024/03/30 08:39:12;;;;;;;6.90;5.43;;;;;;;;;;5083350;28;20330;-73
2024/03/30 08:41:37;;;;;;;7.47;5.75;;;;;;;;;;5079702;28;20786;-73
2024/03/30 08:44:05;;;;;;;6.90;5.65;;;;;;;;;;5081914;28;20652;-73
2024/03/30 08:46:30;;;;;;;6.43;5.82;;;;;;;;;;5074153;28;20212;-73
2024/03/30 08:49:06;;;;;;;7.53;5.68;;;;;;;;;;5088474;28;20192;-73
2024/03/30 08:51:32;;;;;;;5.78;5.28;;;;;;;;;;5075608;28;20288;-74
2024/03/30 08:54:04;;;;;;;6.97;5.70;;;;;;;;;;5087414;28;20599;-72
2024/03/30 08:56:30;;;;;;;7.07;5.20;;;;;;;;;;5085805;28;20237;-72
2024/03/30 08:58:56;;;;;;;6.45;4.72;;;;;;;;;;5087139;28;20203;-73
2024/03/30 09:01:22;;;;;;;6.15;4.90;;;;;;;;;;5072474;28;20680;-72
2024/03/30 09:03:48;;;;;;;6.53;4.65;;;;;;;;;;5083801;28;20184;-72
2024/03/30 09:06:13;;;;;;;7.35;4.57;;;;;;;;;;5087318;28;20188;-72
2024/03/30 09:08:39;;;;;;;5.50;5.00;;;;;;;;;;5078807;28;20192;-72
2024/03/30 09:11:04;;;;;;;8.98;5.10;;;;;;;;;;5082000;28;20185;-72
2024/03/30 09:13:30;;;;;;;5.60;5.00;;;;;;;;;;5086933;28;20630;-72
2024/03/30 09:15:55;;;;;;;7.78;4.55;;;;;;;;;;5086288;28;20271;-72
2024/03/30 09:18:23;;;;;;;6.60;4.05;;;;;;;;;;5086368;28;20190;-73
2024/03/30 09:20:49;;;;;;;7.57;4.47;;;;;;;;;;5084406;28;20288;-72
2024/03/30 09:23:14;;;;;;;6.25;3.72;;;;;;;;;;5084566;28;20287;-72
2024/03/30 09:25:40;;;;;;;5.85;3.88;;;;;;;;;;5090664;28;20183;-72
2024/03/30 09:28:06;;;;;;;5.72;3.83;;;;;;;;;;5089452;28;20712;-72
2024/03/30 09:30:31;;;;;;;4.82;3.65;;;;;;;;;;5084328;28;20188;-72
2024/03/30 09:32:57;;;;;;;6.35;4.13;;;;;;;;;;5078717;28;20511;-72
2024/03/30 09:35:22;;;;;;;11.23;3.88;;;;;;;;;;5077621;28;20525;-72
2024/03/30 09:37:48;;;;;;;8.05;3.63;;;;;;;;;;5087653;28;20239;-72
2024/03/30 09:40:13;;;;;;;10.23;3.60;;;;;;;;;;5088169;28;20285;-72
2024/03/30 09:42:42;;;;;;;11.20;3.20;;;;;;;;;;5084457;28;20217;-72
2024/03/30 09:45:11;;;;;;;8.65;3.13;;;;;;;;;;5078210;28;20188;-71
2024/03/30 09:47:39;;;;;;;8.00;3.13;;;;;;;;;;5086978;28;20678;-72
2024/03/30 09:50:07;;;;;;;5.50;2.70;;;;;;;;;;5086488;28;20184;-73
2024/03/30 09:52:36;;;;;;;6.45;2.85;;;;;;;;;;5088267;28;20195;-72
2024/03/30 09:55:08;;;;;;;10.88;3.10;;;;;;;;;;5084465;28;20270;-72
2024/03/30 09:57:34;;;;;;;12.63;3.00;;;;;;;;;;5083039;28;20202;-72
2024/03/30 10:00:03;;;;;;;12.45;3.20;;;;;;;;;;5079072;28;20208;-72
2024/03/30 10:02:28;;;;;;;7.15;3.35;;;;;;;;;;5079813;28;20741;-73
2024/03/30 10:04:55;;;;;;;13.35;3.08;;;;;;;;;;5078615;28;20187;-73
2024/03/30 10:07:32;;;;;;;13.35;4.20;;;;;;;;;;5077669;28;20184;-73
2024/03/30 10:10:00;;;;;;;10.82;2.85;;;;;;;;;;5075025;28;20184;-74
2024/03/30 10:12:36;;;;;;;13.20;3.30;;;;;;;;;;5084303;28;20253;-72
2024/03/30 10:15:05;;;;;;;16.83;3.00;;;;;;;;;;5088352;28;20184;-72
2024/03/30 10:17:31;;;;;;;17.13;2.83;;;;;;;;;;5084593;28;20272;-72
2024/03/30 10:19:58;;;;;;;18.30;2.92;;;;;;;;;;5081713;28;20315;-72
2024/03/30 10:22:23;;;;;;;15.52;3.40;;;;;;;;;;5086986;28;20513;-73
2024/03/30 10:24:51;;;;;;;15.95;2.97;;;;;;;;;;5090231;28;20188;-73
2024/03/30 10:27:16;;;;;;;14.40;2.75;;;;;;;;;;5076677;28;20682;-72
2024/03/30 10:29:45;;;;;;;16.45;3.17;;;;;;;;;;5087532;28;20192;-73
2024/03/30 10:32:10;;;;;;;18.45;3.40;;;;;;;;;;5080000;28;20279;-72
2024/03/30 10:34:36;;;;;;;7.30;2.80;;;;;;;;;;5085351;28;20204;-73
2024/03/30 10:37:01;;;;;;;17.25;2.70;;;;;;;;;;5090981;28;20243;-73
2024/03/30 10:39:28;;;;;;;19.63;3.55;;;;;;;;;;5087759;28;20279;-72
2024/03/30 10:41:54;;;;;;;16.80;2.78;;;;;;;;;;5089345;28;20663;-74
2024/03/30 10:44:27;;;;;;;16.95;2.47;;;;;;;;;;5070911;28;20596;-74
2024/03/30 10:46:53;;;;;;;18.42;2.75;;;;;;;;;;5080689;28;20192;-74
2024/03/30 10:49:19;;;;;;;19.38;3.97;;;;;;;;;;5080428;28;20549;-74
2024/03/30 10:51:45;;;;;;;17.60;2.55;;;;;;;;;;5085165;28;20184;-73
2024/03/30 10:54:18;;;;;;;14.20;2.45;;;;;;;;;;5089904;28;20265;-73
2024/03/30 10:56:50;;;;;;;16.90;3.17;;;;;;;;;;5084660;28;20184;-73
2024/03/30 10:59:20;;;;;;;18.70;3.53;;;;;;;;;;5088751;28;20204;-74
2024/03/30 11:01:50;;;;;;;24.70;3.05;;;;;;;;;;5077212;28;20204;-73
2024/03/30 11:04:18;;;;;;;20.98;2.75;;;;;;;;;;5088145;28;20370;-73
2024/03/30 11:06:45;;;;;;;22.23;3.50;;;;;;;;;;5081708;28;20287;-73
2024/03/30 11:09:16;;;;;;;21.58;3.05;;;;;;;;;;5076287;28;20184;-71
2024/03/30 11:11:44;;;;;;;23.08;3.40;;;;;;;;;;5084131;28;20191;-72
2024/03/30 11:14:10;;;;;;;13.38;2.58;;;;;;;;;;5081980;28;20543;-72
2024/03/30 11:16:43;;;;;;;17.20;3.25;;;;;;;;;;5088140;28;20282;-73
2024/03/30 11:19:22;;;;;;;18.15;2.67;;;;;;;;;;5082119;28;20219;-72
2024/03/30 11:22:16;;;;;;;23.98;3.60;;;;;;;;;;5079665;28;20234;-72
2024/03/30 11:24:59;;;;;;;19.15;3.08;;;;;;;;;;5075510;28;20559;-73
2024/03/30 11:27:30;;;;;;;18.42;3.15;;;;;;;;;;5078250;28;21075;-72
2024/03/30 11:30:11;;;;;;;17.05;3.40;;;;;;;;;;5081395;28;20184;-72
2024/03/30 11:32:43;;;;;;;26.42;3.92;;;;;;;;;;5081066;28;20185;-73
2024/03/30 11:35:25;;;;;;;29.02;3.42;;;;;;;;;;5069654;28;20185;-72
2024/03/30 11:37:54;;;;;;;33.35;3.70;;;;;;;;;;5085916;28;20225;-72
2024/03/30 11:40:30;;;;;;;21.35;3.30;;;;;;;;;;5081555;28;20293;-72
2024/03/30 11:43:22;;;;;;;39.40;4.72;;;;;;;;;;5084076;28;20243;-72
2024/03/30 11:45:48;;;;;;;28.88;3.63;;;;;;;;;;5072188;28;20227;-72
2024/03/30 11:48:15;;;;;;;23.70;3.63;;;;;;;;;;5068984;28;20242;-72
2024/03/30 11:50:41;;;;;;;32.15;3.63;;;;;;;;;;5073433;28;20196;-73
2024/03/30 11:53:17;;;;;;;28.70;4.53;;;;;;;;;;5077225;28;20188;-72
2024/03/30 11:55:44;;;;;;;27.25;4.18;;;;;;;;;;5081199;28;20199;-72
2024/03/30 11:58:21;;;;;;;27.33;4.10;;;;;;;;;;5075989;28;20180;-72
2024/03/30 12:00:51;;;;;;;23.90;3.58;;;;;;;;;;5088715;28;20224;-72
2024/03/30 12:03:16;;;;;;;23.55;4.00;;;;;;;;;;5087186;28;20271;-71
2024/03/30 12:05:45;;;;;;;38.75;4.65;;;;;;;;;;5086411;28;20246;-72
2024/03/30 12:08:10;;;;;;;32.55;5.32;;;;;;;;;;5081767;28;20667;-71
2024/03/30 12:11:06;;;;;;;40.75;5.22;;;;;;;;;;5088645;28;20223;-71
2024/03/30 12:13:38;;;;;;;43.40;5.25;;;;;;;;;;5075887;28;20216;-71
2024/03/30 12:16:05;;;;;;;31.05;4.85;;;;;;;;;;5079177;28;20243;-73
2024/03/30 12:18:31;;;;;;;32.10;4.97;;;;;;;;;;5089385;28;20219;-71
2024/03/30 12:20:57;;;;;;;35.22;4.40;;;;;;;;;;5085801;28;20283;-72
2024/03/30 12:23:24;;;;;;;36.90;4.80;;;;;;;;;;5087616;28;20584;-73
2024/03/30 12:25:50;;;;;;;32.75;4.93;;;;;;;;;;5083562;28;20656;-70
2024/03/30 12:28:16;;;;;;;37.05;5.43;;;;;;;;;;5077975;28;20184;-70
2024/03/30 12:30:46;;;;;;;41.13;5.35;;;;;;;;;;5087589;28;20324;-70
2024/03/30 12:33:15;;;;;;;32.55;5.13;;;;;;;;;;5084397;28;20181;-70
2024/03/30 12:35:42;;;;;;;37.83;5.20;;;;;;;;;;5074238;28;20177;-71
2024/03/30 12:38:16;;;;;;;47.50;5.47;;;;;;;;;;5077557;28;20801;-71
2024/03/30 12:40:45;;;;;;;42.38;7.00;;;;;;;;;;5088647;28;20677;-72
2024/03/30 12:43:14;;;;;;;36.25;4.72;;;;;;;;;;5082570;28;20188;-71
2024/03/30 12:45:43;;;;;;;42.45;5.35;;;;;;;;;;5078273;28;20376;-71
2024/03/30 12:48:12;;;;;;;41.25;6.18;;;;;;;;;;5083628;28;20180;-71
2024/03/30 12:50:38;;;;;;;51.72;6.63;;;;;;;;;;5078381;28;20192;-71
2024/03/30 12:53:04;;;;;;;39.22;5.55;;;;;;;;;;5086132;28;20742;-71
2024/03/30 12:55:30;;;;;;;48.90;5.90;;;;;;;;;;5086243;28;20184;-71
2024/03/30 12:57:56;;;;;;;37.92;5.15;;;;;;;;;;5071186;28;20192;-71
2024/03/30 13:00:23;;;;;;;45.90;6.45;;;;;;;;;;5082664;28;20608;-71
2024/03/30 13:02:52;;;;;;;43.00;5.53;;;;;;;;;;5076066;28;20188;-71
2024/03/30 13:05:18;;;;;;;38.45;5.18;;;;;;;;;;5074070;28;20643;-71
2024/03/30 13:07:43;;;;;;;35.60;5.05;;;;;;;;;;5080192;28;20650;-71
2024/03/30 13:10:09;;;;;;;48.53;5.88;;;;;;;;;;5080198;28;20430;-73
2024/03/30 13:12:35;;;;;;;37.38;5.40;;;;;;;;;;5081443;28;20210;-71
2024/03/30 13:15:01;;;;;;;34.45;4.90;;;;;;;;;;5087066;28;20625;-71
2024/03/30 13:17:27;;;;;;;42.95;5.63;;;;;;;;;;5065942;28;20325;-71
2024/03/30 13:19:53;;;;;;;33.70;4.85;;;;;;;;;;5084408;28;20211;-71
2024/03/30 13:22:18;;;;;;;35.90;4.93;;;;;;;;;;5081856;28;20277;-71
2024/03/30 13:24:44;;;;;;;33.13;4.68;;;;;;;;;;5073332;28;20191;-72
2024/03/30 13:27:09;;;;;;;30.38;4.80;;;;;;;;;;5079807;28;20189;-71
2024/03/30 13:29:39;;;;;;;37.45;5.25;;;;;;;;;;5066755;28;20262;-71
2024/03/30 13:32:07;;;;;;;34.15;4.70;;;;;;;;;;5080032;28;20187;-73
2024/03/30 13:34:32;;;;;;;33.45;5.20;;;;;;;;;;5076542;28;20609;-71
2024/03/30 13:36:58;;;;;;;35.33;5.10;;;;;;;;;;5070327;28;20315;-72
2024/03/30 13:39:24;;;;;;;37.92;4.57;;;;;;;;;;5081752;28;20271;-70
2024/03/30 13:41:49;;;;;;;24.00;3.42;;;;;;;;;;5087871;28;20208;-70
2024/03/30 13:44:15;;;;;;;25.92;4.18;;;;;;;;;;5077104;28;20290;-70
2024/03/30 13:46:41;;;;;;;26.58;3.50;;;;;;;;;;5073662;28;20184;-71
2024/03/30 13:49:06;;;;;;;26.27;4.05;;;;;;;;;;5074036;28;20184;-70
2024/03/30 13:51:31;;;;;;;21.40;4.03;;;;;;;;;;5075691;28;20212;-70
2024/03/30 13:53:57;;;;;;;28.45;3.55;;;;;;;;;;5077144;28;20186;-71
2024/03/30 13:56:22;;;;;;;24.17;3.25;;;;;;;;;;5078810;28;20189;-70
2024/03/30 13:58:48;;;;;;;18.95;3.50;;;;;;;;;;5080077;28;20630;-70
2024/03/30 14:01:13;;;;;;;12.88;2.63;;;;;;;;;;5068131;28;20559;-70
2024/03/30 14:03:39;;;;;;;17.70;2.55;;;;;;;;;;5080945;28;20227;-70
2024/03/30 14:06:04;;;;;;;20.90;2.97;;;;;;;;;;5071976;28;20550;-71
2024/03/30 14:08:30;;;;;;;15.93;2.75;;;;;;;;;;5074996;28;20188;-70
2024/03/30 14:10:56;;;;;;;14.43;2.05;;;;;;;;;;5077079;28;20180;-71
2024/03/30 14:13:22;;;;;;;17.55;2.13;;;;;;;;;;5090839;28;20548;-71
2024/03/30 14:15:47;;;;;;;16.50;2.55;;;;;;;;;;5089616;28;20206;-71
2024/03/30 14:18:12;;;;;;;15.35;2.38;;;;;;;;;;5082437;28;20192;-70
2024/03/30 14:20:38;;;;;;;13.88;2.00;;;;;;;;;;5085463;28;20515;-70
2024/03/30 14:23:03;;;;;;;13.40;2.80;;;;;;;;;;5072250;28;20181;-70
2024/03/30 14:25:33;;;;;;;16.48;2.28;;;;;;;;;;5088832;28;20271;-70
2024/03/30 14:27:59;;;;;;;13.07;2.38;;;;;;;;;;5086296;28;20199;-70
2024/03/30 14:30:24;;;;;;;15.32;2.20;;;;;;;;;;5071915;28;20188;-71
2024/03/30 14:32:49;;;;;;;19.52;2.13;;;;;;;;;;5089298;28;20590;-71
2024/03/30 14:35:18;;;;;;;11.75;2.20;;;;;;;;;;5091021;28;20206;-73